Airfield :
LOGIN :

Register | Disclaimer

   EN    FR    IT 

 










Legend :    VFR   Marginal VFR   IFR   Intensive IFR   Very Intensive IFR
Visi :
Ceiling :
>= 8 km
>= 3000ft
5 to 8 km
1000 to 3000 ft
1500m to 5 km
500 to 1000 ft
800 to 1500m
200 to 500 ft
< 800m
< 200 ft
Symbols :   Thunderstorms  Fog  Heavy snow  Heavy precipitations  Wind > 20 kt
SIGMETs :     Misc.  Thunderstorms  Icing  Turbulence  Mountain Waves  Volcanic Ashes






- Airport Elevation : 622 ft
- IATA code : BRS


EGGD - Bristol Int.

CURRENT METAR :
  • 291350Z AUTO 23018KT 9999 FEW017 SCT028 BKN033 04/00 Q0984

EXPIRED METARs :
  • 291320Z AUTO 23014KT 9999 SCT006 SCT009 BKN020 04/03 Q0985 RESHSN RERA
  • 291250Z 25019G32KT 9999 5000SW -SHSNRA FEW016 SCT020 BKN028 03/01 Q0985
  • 291220Z AUTO 24016KT 9999 SCT023 BKN029 04/01 Q0985
  • 291150Z 24014KT 9999 FEW015 SCT024 04/02 Q0985
  • 291120Z 24018KT 9999 VCSH SCT019CB SCT028 03/01 Q0984
  • 291050Z AUTO 24015KT 9999 SCT019/// BKN025/// BKN036/// //////TCU 03/01 Q0984

TAF TAF EGGD
Valid from the 29 at 12:00 until the 01 at 12:00 UTC


291059Z 2912/0112 24020G32KT 9999 SCT025
TEMPO 2912/0112 6000 SHRA SHGS BKN008 BKN020TCU
PROB40
TEMPO 2912/0110 26028G42KT 3000 +SHRAGS BKN004 BKN015CB
BECMG 0104/0107 22013KT
ATIS : +44 1275 473 666



MET'MAP, your aeronautical weather chart ! - Copyright ORBIFLY December 2007 - Disclaimer

ORBIFLY MET'MAP TEAM :

Programming & Development : Alexandra Zaïnal
Concept & original design : Baudouin d'Aumeries
Assistance for programming : Marc-Olivier Méhu
Technical & hardware support : Manuel Goepfert

Contact : metmap@orbifly.com




SOURCES & CREDITS :

   NOAA